KACY/ACY METAR and TAF weather

Enter ICAO airport designator
Station Type Date Time Source
KACY METAR 2021/05/09 23:54 UTC NOAA

KACY 092354Z AUTO 15007KT 10SM OVC025 13/07 A2988 RMK AO2 SLP116 60000 T01280067 10150 20128 56036 TSNO


Station Type Date Time Source
KACY Decoded METAR 2021/05/09 23:54 UTC NOAA

ATLANTIC CITY INTERNATIONAL, NJ, United States (KACY) 39-28N 74-35W 35M
May 09, 2021 - 07:54 PM EDT / 2021.05.09 2354 UTC
Wind: from the SSE (150 degrees) at 8 MPH (7 KT):0
Visibility: 10 mile(s):0
Sky conditions: overcast
Temperature: 55.0 F (12.8 C)
Dew Point: 44.1 F (6.7 C)
Relative Humidity: 66%
Pressure (altimeter): 29.88 in. Hg (1011 hPa)
Pressure tendency: 0.11 inches (3.6 hPa) lower than three hours ago
ob: KACY 092354Z AUTO 15007KT 10SM OVC025 13/07 A2988 RMK AO2 SLP116 60000 T01280067 10150 20128 56036 TSNO
cycle: 0

Station Type Date Time Source
KACY TAF 2021/05/10 00:27 UTC NOAA

TAF
AMD KACY 100019Z 1000/1024 16011KT P6SM OVC100
TEMPO 1000/1003 BKN025 OVC100
FM100300 13010KT P6SM BKN020 OVC040 WS020/23045KT
FM100500 20010KT P6SM BKN020 OVC040 WS020/24045KT
FM100800 24010KT P6SM BKN040
FM101400 32010G18KT P6SM BKN045

Example: see airport list